Portada
METAR-TAF:

METAR-TAF

Aeroports :

Presidente Prudente, São Paulo, Brasil

latitud: 22-07S, longitud: 051-23W, altitud: 436 m

Observació

L'informe es va fer fa 2 hores i 21 minuts, a les 19:00 UTC
Vent 8 kt del Est/Nord-Est, variant entre Nord i Sud-Est
Temperatura 28°C
Humitat 20%
Pressió 1021 hPa
Visibilitat 10 km o més
sense núvols per sota de 1500 mi sense presència de cumulonimbus.

METAR: SBDN 071900Z 06008KT 010V130 CAVOK 28/03 Q1021

Hora: 18:21 (21:21 UTC)

Pronòstic

L'informe es va fer fa 6 hores i 21 minuts, a les 15:00 UTC
Pronòstic vàlid del 07 a les 18 UTC al 08 a les 06 UTC
Vent 8 kt del Nord-Est
Visibilitat 10 km o més
sense núvols per sota de 1500 mi sense presència de cumulonimbus.
Evolucionant progressivament
l' 07 a les 20 UTC al 07 a les 22 UTC
Vent 5 kt del Est

TAF: SBDN 071500Z 0718/0806 05008KT CAVOK TX28/0718Z TN16/0806Z BECMG 0720/0722 09005KT RMK PAZ

Observacions i pronòstics meteorològics de més de 4000 aeroports (METAR i TAF).

Les estacions disponibles són els punts grocs i vermells al mapa.

Posi el ratolí al punt desitjat per veure el nom de l'estació.

Feu clic per veure les observacions i els pronòstics meteorològics.

Per canviar el mapa: feu clic els botons verds amb una creu de color negre per apropar; al botó verd amb un guió per allunyar la imatge; o en les fletxes verdes per a mapes adjacents.


METAR-TAF: